sensor_id;sensor_type;location;lat;lon;timestamp;P1;durP1;ratioP1;P2;durP2;ratioP2
28802;SDS011;15949;55.656;37.422;2023-08-24T00:02:19;38.38;;;15.80;;
28802;SDS011;15949;55.656;37.422;2023-08-24T00:07:25;34.78;;;15.45;;
28802;SDS011;15949;55.656;37.422;2023-08-24T00:12:33;94.13;;;16.10;;
28802;SDS011;15949;55.656;37.422;2023-08-24T00:17:38;70.18;;;16.50;;
28802;SDS011;15949;55.656;37.422;2023-08-24T00:22:44;44.97;;;20.25;;
28802;SDS011;15949;55.656;37.422;2023-08-24T00:27:50;36.30;;;18.55;;
28802;SDS011;15949;55.656;37.422;2023-08-24T00:32:55;39.65;;;19.63;;
28802;SDS011;15949;55.656;37.422;2023-08-24T00:38:01;34.95;;;19.88;;
28802;SDS011;15949;55.656;37.422;2023-08-24T00:43:07;31.02;;;20.23;;
28802;SDS011;15949;55.656;37.422;2023-08-24T00:48:13;34.08;;;20.52;;
28802;SDS011;15949;55.656;37.422;2023-08-24T00:53:19;33.70;;;20.92;;
28802;SDS011;15949;55.656;37.422;2023-08-24T00:58:26;31.70;;;20.48;;
28802;SDS011;15949;55.656;37.422;2023-08-24T01:03:32;31.95;;;21.48;;
28802;SDS011;15949;55.656;37.422;2023-08-24T01:08:38;31.98;;;20.63;;
28802;SDS011;15949;55.656;37.422;2023-08-24T01:19:55;26.58;;;19.27;;
28802;SDS011;15949;55.656;37.422;2023-08-24T01:24:48;29.48;;;20.23;;
28802;SDS011;15949;55.656;37.422;2023-08-24T01:29:59;36.65;;;22.45;;
28802;SDS011;15949;55.656;37.422;2023-08-24T01:35:06;25.83;;;18.73;;
28802;SDS011;15949;55.656;37.422;2023-08-24T01:45:56;34.17;;;22.23;;
28802;SDS011;15949;55.656;37.422;2023-08-24T01:51:04;34.65;;;20.80;;
28802;SDS011;15949;55.656;37.422;2023-08-24T01:56:11;29.70;;;19.77;;
28802;SDS011;15949;55.656;37.422;2023-08-24T02:01:17;30.75;;;20.83;;
28802;SDS011;15949;55.656;37.422;2023-08-24T02:06:22;35.25;;;20.98;;
28802;SDS011;15949;55.656;37.422;2023-08-24T02:11:28;33.35;;;21.00;;
28802;SDS011;15949;55.656;37.422;2023-08-24T02:16:35;31.80;;;19.90;;
28802;SDS011;15949;55.656;37.422;2023-08-24T02:21:41;26.73;;;18.65;;
28802;SDS011;15949;55.656;37.422;2023-08-24T02:26:47;25.73;;;18.23;;
28802;SDS011;15949;55.656;37.422;2023-08-24T02:31:52;30.63;;;19.05;;
28802;SDS011;15949;55.656;37.422;2023-08-24T02:36:58;26.95;;;18.70;;
28802;SDS011;15949;55.656;37.422;2023-08-24T02:42:04;36.42;;;20.63;;
28802;SDS011;15949;55.656;37.422;2023-08-24T02:47:10;31.30;;;20.42;;
28802;SDS011;15949;55.656;37.422;2023-08-24T02:52:15;35.17;;;20.35;;
28802;SDS011;15949;55.656;37.422;2023-08-24T02:57:21;28.60;;;19.83;;
28802;SDS011;15949;55.656;37.422;2023-08-24T03:02:27;29.67;;;19.10;;
28802;SDS011;15949;55.656;37.422;2023-08-24T03:07:32;28.30;;;18.13;;
28802;SDS011;15949;55.656;37.422;2023-08-24T03:12:38;24.38;;;15.85;;
28802;SDS011;15949;55.656;37.422;2023-08-24T03:17:44;22.25;;;16.02;;
28802;SDS011;15949;55.656;37.422;2023-08-24T03:22:49;18.08;;;13.98;;
28802;SDS011;15949;55.656;37.422;2023-08-24T03:27:55;17.60;;;14.45;;
28802;SDS011;15949;55.656;37.422;2023-08-24T03:33:01;15.85;;;12.77;;
28802;SDS011;15949;55.656;37.422;2023-08-24T03:38:08;14.80;;;11.25;;
28802;SDS011;15949;55.656;37.422;2023-08-24T03:43:13;16.33;;;11.57;;
28802;SDS011;15949;55.656;37.422;2023-08-24T03:48:19;13.80;;;11.00;;
28802;SDS011;15949;55.656;37.422;2023-08-24T03:53:25;17.10;;;11.10;;
28802;SDS011;15949;55.656;37.422;2023-08-24T03:58:31;16.80;;;11.77;;
28802;SDS011;15949;55.656;37.422;2023-08-24T04:03:36;15.48;;;10.63;;
28802;SDS011;15949;55.656;37.422;2023-08-24T04:08:42;15.13;;;10.82;;
28802;SDS011;15949;55.656;37.422;2023-08-24T04:13:48;13.55;;;10.20;;
28802;SDS011;15949;55.656;37.422;2023-08-24T04:18:53;12.65;;;10.30;;
28802;SDS011;15949;55.656;37.422;2023-08-24T04:23:59;11.98;;;9.52;;
28802;SDS011;15949;55.656;37.422;2023-08-24T04:29:04;13.77;;;9.60;;
28802;SDS011;15949;55.656;37.422;2023-08-24T04:34:10;10.23;;;8.65;;
28802;SDS011;15949;55.656;37.422;2023-08-24T04:39:16;11.18;;;8.40;;
28802;SDS011;15949;55.656;37.422;2023-08-24T04:44:23;10.90;;;8.40;;
28802;SDS011;15949;55.656;37.422;2023-08-24T04:49:32;9.57;;;7.80;;
28802;SDS011;15949;55.656;37.422;2023-08-24T04:54:37;10.65;;;8.10;;
28802;SDS011;15949;55.656;37.422;2023-08-24T04:59:43;10.52;;;7.97;;
28802;SDS011;15949;55.656;37.422;2023-08-24T05:04:49;10.90;;;8.43;;
28802;SDS011;15949;55.656;37.422;2023-08-24T05:09:55;13.15;;;8.15;;
28802;SDS011;15949;55.656;37.422;2023-08-24T05:15:03;9.50;;;7.95;;
28802;SDS011;15949;55.656;37.422;2023-08-24T05:25:15;13.05;;;8.02;;
28802;SDS011;15949;55.656;37.422;2023-08-24T05:30:21;9.98;;;7.65;;
28802;SDS011;15949;55.656;37.422;2023-08-24T05:35:27;9.30;;;7.88;;
28802;SDS011;15949;55.656;37.422;2023-08-24T05:40:35;10.00;;;8.10;;
28802;SDS011;15949;55.656;37.422;2023-08-24T05:45:42;11.50;;;7.30;;
28802;SDS011;15949;55.656;37.422;2023-08-24T05:50:50;10.68;;;6.97;;
28802;SDS011;15949;55.656;37.422;2023-08-24T05:55:58;10.73;;;7.45;;
28802;SDS011;15949;55.656;37.422;2023-08-24T06:01:04;10.47;;;7.20;;
28802;SDS011;15949;55.656;37.422;2023-08-24T06:06:09;12.10;;;7.82;;
28802;SDS011;15949;55.656;37.422;2023-08-24T06:11:15;10.23;;;7.95;;
28802;SDS011;15949;55.656;37.422;2023-08-24T06:16:21;13.85;;;9.52;;
28802;SDS011;15949;55.656;37.422;2023-08-24T06:21:26;12.50;;;8.98;;
28802;SDS011;15949;55.656;37.422;2023-08-24T06:26:32;12.30;;;8.45;;
28802;SDS011;15949;55.656;37.422;2023-08-24T06:31:38;15.07;;;9.70;;
28802;SDS011;15949;55.656;37.422;2023-08-24T06:36:43;16.35;;;10.68;;
28802;SDS011;15949;55.656;37.422;2023-08-24T06:41:49;12.38;;;9.77;;
28802;SDS011;15949;55.656;37.422;2023-08-24T06:46:56;14.38;;;10.00;;
28802;SDS011;15949;55.656;37.422;2023-08-24T06:52:02;14.88;;;9.82;;
28802;SDS011;15949;55.656;37.422;2023-08-24T06:57:08;17.02;;;12.25;;
28802;SDS011;15949;55.656;37.422;2023-08-24T07:02:14;19.35;;;17.05;;
28802;SDS011;15949;55.656;37.422;2023-08-24T07:07:22;27.02;;;20.15;;
28802;SDS011;15949;55.656;37.422;2023-08-24T07:12:28;27.83;;;22.45;;
28802;SDS011;15949;55.656;37.422;2023-08-24T07:17:34;31.52;;;23.95;;
28802;SDS011;15949;55.656;37.422;2023-08-24T07:22:39;30.92;;;25.00;;
28802;SDS011;15949;55.656;37.422;2023-08-24T07:27:45;26.77;;;23.52;;
28802;SDS011;15949;55.656;37.422;2023-08-24T07:32:51;30.50;;;23.08;;
28802;SDS011;15949;55.656;37.422;2023-08-24T07:37:56;25.50;;;22.70;;
28802;SDS011;15949;55.656;37.422;2023-08-24T07:43:02;28.55;;;25.35;;
28802;SDS011;15949;55.656;37.422;2023-08-24T07:48:08;37.35;;;28.83;;
28802;SDS011;15949;55.656;37.422;2023-08-24T07:53:13;32.58;;;25.58;;
28802;SDS011;15949;55.656;37.422;2023-08-24T07:58:19;34.15;;;27.92;;
28802;SDS011;15949;55.656;37.422;2023-08-24T08:03:25;28.42;;;24.45;;
28802;SDS011;15949;55.656;37.422;2023-08-24T08:08:30;25.90;;;21.13;;
28802;SDS011;15949;55.656;37.422;2023-08-24T08:13:36;28.55;;;25.42;;
28802;SDS011;15949;55.656;37.422;2023-08-24T08:18:41;24.10;;;20.55;;
28802;SDS011;15949;55.656;37.422;2023-08-24T08:23:47;23.77;;;18.52;;
28802;SDS011;15949;55.656;37.422;2023-08-24T08:28:53;26.63;;;22.25;;
28802;SDS011;15949;55.656;37.422;2023-08-24T08:33:58;23.65;;;21.35;;
28802;SDS011;15949;55.656;37.422;2023-08-24T08:39:04;26.70;;;23.23;;
28802;SDS011;15949;55.656;37.422;2023-08-24T08:44:11;33.58;;;25.27;;
28802;SDS011;15949;55.656;37.422;2023-08-24T08:49:18;33.92;;;30.40;;
28802;SDS011;15949;55.656;37.422;2023-08-24T08:54:25;32.38;;;26.08;;
28802;SDS011;15949;55.656;37.422;2023-08-24T08:59:30;33.25;;;27.52;;
28802;SDS011;15949;55.656;37.422;2023-08-24T09:04:37;30.48;;;25.05;;
28802;SDS011;15949;55.656;37.422;2023-08-24T09:09:43;27.52;;;24.05;;
28802;SDS011;15949;55.656;37.422;2023-08-24T09:14:49;26.92;;;22.92;;
28802;SDS011;15949;55.656;37.422;2023-08-24T09:19:57;26.17;;;23.23;;
28802;SDS011;15949;55.656;37.422;2023-08-24T09:25:04;26.33;;;23.52;;
28802;SDS011;15949;55.656;37.422;2023-08-24T09:30:11;25.55;;;22.00;;
28802;SDS011;15949;55.656;37.422;2023-08-24T09:35:17;28.92;;;24.30;;
28802;SDS011;15949;55.656;37.422;2023-08-24T09:40:26;26.75;;;22.45;;
28802;SDS011;15949;55.656;37.422;2023-08-24T09:45:32;31.85;;;27.52;;
28802;SDS011;15949;55.656;37.422;2023-08-24T09:50:37;32.05;;;25.85;;
28802;SDS011;15949;55.656;37.422;2023-08-24T09:55:47;31.85;;;24.27;;
28802;SDS011;15949;55.656;37.422;2023-08-24T10:00:55;26.40;;;23.08;;
28802;SDS011;15949;55.656;37.422;2023-08-24T10:06:01;28.58;;;24.55;;
28802;SDS011;15949;55.656;37.422;2023-08-24T10:11:08;31.67;;;24.20;;
28802;SDS011;15949;55.656;37.422;2023-08-24T10:16:15;31.92;;;28.52;;
28802;SDS011;15949;55.656;37.422;2023-08-24T10:21:23;26.80;;;23.92;;
28802;SDS011;15949;55.656;37.422;2023-08-24T10:26:32;25.27;;;22.57;;
28802;SDS011;15949;55.656;37.422;2023-08-24T10:31:39;26.48;;;21.80;;
28802;SDS011;15949;55.656;37.422;2023-08-24T10:36:49;24.55;;;18.67;;
28802;SDS011;15949;55.656;37.422;2023-08-24T10:41:55;24.58;;;19.75;;
28802;SDS011;15949;55.656;37.422;2023-08-24T10:47:07;23.58;;;19.85;;
28802;SDS011;15949;55.656;37.422;2023-08-24T10:52:18;23.70;;;19.95;;
28802;SDS011;15949;55.656;37.422;2023-08-24T10:57:25;22.90;;;16.50;;
28802;SDS011;15949;55.656;37.422;2023-08-24T11:02:42;22.52;;;18.85;;
28802;SDS011;15949;55.656;37.422;2023-08-24T11:07:55;17.80;;;15.38;;
28802;SDS011;15949;55.656;37.422;2023-08-24T11:13:06;20.05;;;16.27;;
28802;SDS011;15949;55.656;37.422;2023-08-24T11:18:14;18.25;;;16.33;;
28802;SDS011;15949;55.656;37.422;2023-08-24T11:23:24;19.00;;;15.60;;
28802;SDS011;15949;55.656;37.422;2023-08-24T11:28:31;21.02;;;14.32;;
28802;SDS011;15949;55.656;37.422;2023-08-24T11:33:37;22.13;;;13.98;;
28802;SDS011;15949;55.656;37.422;2023-08-24T11:38:42;15.30;;;13.60;;
28802;SDS011;15949;55.656;37.422;2023-08-24T11:43:49;16.85;;;12.85;;
28802;SDS011;15949;55.656;37.422;2023-08-24T11:48:56;20.27;;;12.95;;
28802;SDS011;15949;55.656;37.422;2023-08-24T11:54:03;15.60;;;12.43;;
28802;SDS011;15949;55.656;37.422;2023-08-24T11:59:13;17.25;;;11.80;;
28802;SDS011;15949;55.656;37.422;2023-08-24T12:04:19;18.88;;;10.23;;
28802;SDS011;15949;55.656;37.422;2023-08-24T12:09:28;13.93;;;9.13;;
28802;SDS011;15949;55.656;37.422;2023-08-24T12:14:40;9.50;;;7.78;;
28802;SDS011;15949;55.656;37.422;2023-08-24T12:19:57;10.65;;;7.32;;
28802;SDS011;15949;55.656;37.422;2023-08-24T12:25:05;14.27;;;7.15;;
28802;SDS011;15949;55.656;37.422;2023-08-24T12:30:11;14.75;;;7.97;;
28802;SDS011;15949;55.656;37.422;2023-08-24T12:35:17;10.63;;;7.13;;
28802;SDS011;15949;55.656;37.422;2023-08-24T12:40:23;12.00;;;7.82;;
28802;SDS011;15949;55.656;37.422;2023-08-24T12:45:31;9.38;;;6.18;;
28802;SDS011;15949;55.656;37.422;2023-08-24T12:50:39;13.68;;;7.10;;
28802;SDS011;15949;55.656;37.422;2023-08-24T12:55:45;10.17;;;6.77;;
28802;SDS011;15949;55.656;37.422;2023-08-24T13:00:51;9.15;;;6.32;;
28802;SDS011;15949;55.656;37.422;2023-08-24T13:05:56;8.65;;;5.72;;
28802;SDS011;15949;55.656;37.422;2023-08-24T13:11:02;16.13;;;6.07;;
28802;SDS011;15949;55.656;37.422;2023-08-24T13:16:08;8.55;;;5.95;;
28802;SDS011;15949;55.656;37.422;2023-08-24T13:21:13;9.23;;;6.13;;
28802;SDS011;15949;55.656;37.422;2023-08-24T13:26:19;8.00;;;4.50;;
28802;SDS011;15949;55.656;37.422;2023-08-24T13:31:26;6.05;;;3.50;;
28802;SDS011;15949;55.656;37.422;2023-08-24T13:36:31;10.13;;;3.35;;
28802;SDS011;15949;55.656;37.422;2023-08-24T13:41:37;8.85;;;3.55;;
28802;SDS011;15949;55.656;37.422;2023-08-24T13:46:43;7.38;;;3.60;;
28802;SDS011;15949;55.656;37.422;2023-08-24T13:51:48;9.77;;;4.00;;
28802;SDS011;15949;55.656;37.422;2023-08-24T13:56:54;11.10;;;4.00;;
28802;SDS011;15949;55.656;37.422;2023-08-24T14:01:59;8.65;;;3.60;;
28802;SDS011;15949;55.656;37.422;2023-08-24T14:07:05;10.38;;;3.75;;
28802;SDS011;15949;55.656;37.422;2023-08-24T14:12:11;6.25;;;4.07;;
28802;SDS011;15949;55.656;37.422;2023-08-24T14:17:16;9.85;;;3.47;;
28802;SDS011;15949;55.656;37.422;2023-08-24T14:22:22;7.38;;;3.63;;
28802;SDS011;15949;55.656;37.422;2023-08-24T14:27:28;13.43;;;3.70;;
28802;SDS011;15949;55.656;37.422;2023-08-24T14:32:33;9.52;;;4.03;;
28802;SDS011;15949;55.656;37.422;2023-08-24T14:37:39;10.38;;;4.00;;
28802;SDS011;15949;55.656;37.422;2023-08-24T14:42:46;11.63;;;3.70;;
28802;SDS011;15949;55.656;37.422;2023-08-24T14:47:54;15.57;;;3.80;;
28802;SDS011;15949;55.656;37.422;2023-08-24T14:52:59;7.88;;;3.50;;
28802;SDS011;15949;55.656;37.422;2023-08-24T14:58:05;12.05;;;4.22;;
28802;SDS011;15949;55.656;37.422;2023-08-24T15:03:11;18.05;;;4.20;;
28802;SDS011;15949;55.656;37.422;2023-08-24T15:08:17;11.82;;;4.15;;
28802;SDS011;15949;55.656;37.422;2023-08-24T15:13:26;23.65;;;5.18;;
28802;SDS011;15949;55.656;37.422;2023-08-24T15:18:33;19.58;;;5.10;;
28802;SDS011;15949;55.656;37.422;2023-08-24T15:23:38;25.48;;;6.07;;
28802;SDS011;15949;55.656;37.422;2023-08-24T15:34:12;13.60;;;4.10;;
28802;SDS011;15949;55.656;37.422;2023-08-24T15:39:18;11.73;;;3.70;;
28802;SDS011;15949;55.656;37.422;2023-08-24T15:44:24;8.13;;;3.80;;
28802;SDS011;15949;55.656;37.422;2023-08-24T15:49:29;12.05;;;4.57;;
28802;SDS011;15949;55.656;37.422;2023-08-24T15:54:35;11.40;;;4.18;;
28802;SDS011;15949;55.656;37.422;2023-08-24T15:59:41;16.67;;;5.38;;
28802;SDS011;15949;55.656;37.422;2023-08-24T16:04:46;16.25;;;7.90;;
28802;SDS011;15949;55.656;37.422;2023-08-24T16:09:52;21.02;;;7.35;;
28802;SDS011;15949;55.656;37.422;2023-08-24T16:14:57;13.73;;;4.72;;
28802;SDS011;15949;55.656;37.422;2023-08-24T16:20:03;12.93;;;4.47;;
28802;SDS011;15949;55.656;37.422;2023-08-24T16:25:12;8.93;;;3.55;;
28802;SDS011;15949;55.656;37.422;2023-08-24T16:30:18;7.40;;;3.20;;
28802;SDS011;15949;55.656;37.422;2023-08-24T16:35:25;12.35;;;3.92;;
28802;SDS011;15949;55.656;37.422;2023-08-24T16:40:34;8.80;;;3.90;;
28802;SDS011;15949;55.656;37.422;2023-08-24T16:45:40;12.07;;;4.05;;
28802;SDS011;15949;55.656;37.422;2023-08-24T16:50:49;15.18;;;4.70;;
28802;SDS011;15949;55.656;37.422;2023-08-24T16:55:57;13.73;;;4.82;;
28802;SDS011;15949;55.656;37.422;2023-08-24T17:01:04;10.82;;;5.50;;
28802;SDS011;15949;55.656;37.422;2023-08-24T17:06:13;13.73;;;5.35;;
28802;SDS011;15949;55.656;37.422;2023-08-24T17:11:18;12.60;;;4.60;;
28802;SDS011;15949;55.656;37.422;2023-08-24T17:16:28;13.80;;;4.45;;
28802;SDS011;15949;55.656;37.422;2023-08-24T17:21:34;12.45;;;6.25;;
28802;SDS011;15949;55.656;37.422;2023-08-24T17:26:39;12.30;;;8.32;;
28802;SDS011;15949;55.656;37.422;2023-08-24T17:31:45;15.05;;;6.05;;
28802;SDS011;15949;55.656;37.422;2023-08-24T17:36:51;15.63;;;6.80;;
28802;SDS011;15949;55.656;37.422;2023-08-24T17:41:57;12.02;;;5.80;;
28802;SDS011;15949;55.656;37.422;2023-08-24T17:47:02;12.55;;;6.18;;
28802;SDS011;15949;55.656;37.422;2023-08-24T17:52:08;12.75;;;6.07;;
28802;SDS011;15949;55.656;37.422;2023-08-24T17:57:14;14.40;;;6.35;;
28802;SDS011;15949;55.656;37.422;2023-08-24T18:02:19;18.65;;;9.23;;
28802;SDS011;15949;55.656;37.422;2023-08-24T18:07:25;15.73;;;7.35;;
28802;SDS011;15949;55.656;37.422;2023-08-24T18:12:30;13.48;;;7.32;;
28802;SDS011;15949;55.656;37.422;2023-08-24T18:17:36;18.88;;;7.63;;
28802;SDS011;15949;55.656;37.422;2023-08-24T18:22:45;12.87;;;6.53;;
28802;SDS011;15949;55.656;37.422;2023-08-24T18:27:51;19.48;;;6.15;;
28802;SDS011;15949;55.656;37.422;2023-08-24T18:32:57;19.55;;;9.30;;
28802;SDS011;15949;55.656;37.422;2023-08-24T18:38:03;51.03;;;30.63;;
28802;SDS011;15949;55.656;37.422;2023-08-24T18:43:09;91.25;;;60.15;;
28802;SDS011;15949;55.656;37.422;2023-08-24T18:48:15;75.68;;;49.70;;
28802;SDS011;15949;55.656;37.422;2023-08-24T18:53:21;21.98;;;11.20;;
28802;SDS011;15949;55.656;37.422;2023-08-24T18:58:26;11.98;;;6.82;;
28802;SDS011;15949;55.656;37.422;2023-08-24T19:03:32;18.23;;;5.80;;
28802;SDS011;15949;55.656;37.422;2023-08-24T19:08:38;12.18;;;6.50;;
28802;SDS011;15949;55.656;37.422;2023-08-24T19:13:44;20.92;;;6.60;;
28802;SDS011;15949;55.656;37.422;2023-08-24T19:18:49;15.30;;;6.43;;
28802;SDS011;15949;55.656;37.422;2023-08-24T19:23:55;13.93;;;6.53;;
28802;SDS011;15949;55.656;37.422;2023-08-24T19:29:01;16.08;;;7.47;;
28802;SDS011;15949;55.656;37.422;2023-08-24T19:34:11;14.98;;;8.30;;
28802;SDS011;15949;55.656;37.422;2023-08-24T19:39:17;20.75;;;9.32;;
28802;SDS011;15949;55.656;37.422;2023-08-24T19:44:23;23.83;;;9.90;;
28802;SDS011;15949;55.656;37.422;2023-08-24T19:49:28;21.92;;;10.23;;
28802;SDS011;15949;55.656;37.422;2023-08-24T19:54:34;26.30;;;11.20;;
28802;SDS011;15949;55.656;37.422;2023-08-24T19:59:40;22.63;;;10.70;;
28802;SDS011;15949;55.656;37.422;2023-08-24T20:04:45;19.98;;;10.38;;
28802;SDS011;15949;55.656;37.422;2023-08-24T20:09:51;22.70;;;10.57;;
28802;SDS011;15949;55.656;37.422;2023-08-24T20:14:57;22.95;;;10.32;;
28802;SDS011;15949;55.656;37.422;2023-08-24T20:20:02;18.90;;;9.50;;
28802;SDS011;15949;55.656;37.422;2023-08-24T20:25:09;15.57;;;9.55;;
28802;SDS011;15949;55.656;37.422;2023-08-24T20:30:15;21.00;;;9.18;;
28802;SDS011;15949;55.656;37.422;2023-08-24T20:35:21;19.58;;;9.57;;
28802;SDS011;15949;55.656;37.422;2023-08-24T20:40:27;20.60;;;9.90;;
28802;SDS011;15949;55.656;37.422;2023-08-24T20:45:33;22.95;;;10.43;;
28802;SDS011;15949;55.656;37.422;2023-08-24T20:50:38;19.55;;;9.85;;
28802;SDS011;15949;55.656;37.422;2023-08-24T20:55:44;19.55;;;9.32;;
28802;SDS011;15949;55.656;37.422;2023-08-24T21:00:50;13.15;;;8.60;;
28802;SDS011;15949;55.656;37.422;2023-08-24T21:05:57;19.92;;;7.95;;
28802;SDS011;15949;55.656;37.422;2023-08-24T21:11:03;16.65;;;7.80;;
28802;SDS011;15949;55.656;37.422;2023-08-24T21:16:09;19.73;;;8.00;;
28802;SDS011;15949;55.656;37.422;2023-08-24T21:21:15;20.63;;;7.88;;
28802;SDS011;15949;55.656;37.422;2023-08-24T21:26:21;14.73;;;8.35;;
28802;SDS011;15949;55.656;37.422;2023-08-24T21:31:26;13.63;;;8.82;;
28802;SDS011;15949;55.656;37.422;2023-08-24T21:36:32;15.95;;;8.45;;
28802;SDS011;15949;55.656;37.422;2023-08-24T21:41:38;16.33;;;9.02;;
28802;SDS011;15949;55.656;37.422;2023-08-24T21:46:43;15.43;;;8.00;;
28802;SDS011;15949;55.656;37.422;2023-08-24T21:51:49;18.05;;;8.93;;
28802;SDS011;15949;55.656;37.422;2023-08-24T21:56:55;17.42;;;8.65;;
28802;SDS011;15949;55.656;37.422;2023-08-24T22:02:00;17.95;;;9.25;;
28802;SDS011;15949;55.656;37.422;2023-08-24T22:07:06;18.90;;;9.25;;
28802;SDS011;15949;55.656;37.422;2023-08-24T22:12:11;18.33;;;9.13;;
28802;SDS011;15949;55.656;37.422;2023-08-24T22:17:17;13.15;;;8.30;;
28802;SDS011;15949;55.656;37.422;2023-08-24T22:22:23;16.17;;;8.80;;
28802;SDS011;15949;55.656;37.422;2023-08-24T22:27:28;16.75;;;9.00;;
28802;SDS011;15949;55.656;37.422;2023-08-24T22:32:35;16.30;;;8.40;;
28802;SDS011;15949;55.656;37.422;2023-08-24T22:37:41;16.25;;;9.00;;
28802;SDS011;15949;55.656;37.422;2023-08-24T22:42:47;17.42;;;9.55;;
28802;SDS011;15949;55.656;37.422;2023-08-24T22:47:53;20.52;;;9.25;;
28802;SDS011;15949;55.656;37.422;2023-08-24T22:52:58;18.65;;;10.15;;
28802;SDS011;15949;55.656;37.422;2023-08-24T22:58:04;14.80;;;9.45;;
28802;SDS011;15949;55.656;37.422;2023-08-24T23:03:10;15.02;;;9.02;;
28802;SDS011;15949;55.656;37.422;2023-08-24T23:08:16;15.65;;;9.68;;
28802;SDS011;15949;55.656;37.422;2023-08-24T23:13:22;17.33;;;9.20;;
28802;SDS011;15949;55.656;37.422;2023-08-24T23:18:28;15.30;;;9.00;;
28802;SDS011;15949;55.656;37.422;2023-08-24T23:23:33;13.70;;;9.35;;
28802;SDS011;15949;55.656;37.422;2023-08-24T23:28:39;14.25;;;8.68;;
28802;SDS011;15949;55.656;37.422;2023-08-24T23:33:44;16.55;;;9.85;;
28802;SDS011;15949;55.656;37.422;2023-08-24T23:38:50;23.80;;;10.18;;
28802;SDS011;15949;55.656;37.422;2023-08-24T23:43:56;17.83;;;10.07;;
28802;SDS011;15949;55.656;37.422;2023-08-24T23:49:02;13.50;;;9.52;;
28802;SDS011;15949;55.656;37.422;2023-08-24T23:54:08;15.88;;;9.80;;
28802;SDS011;15949;55.656;37.422;2023-08-24T23:59:14;13.77;;;9.20;;
